createdAt,value
2019-02-08T00:00:44.636Z,5.60
2019-02-08T00:02:46.260Z,5.77
2019-02-08T00:04:47.929Z,4.17
2019-02-08T00:06:49.612Z,4.70
2019-02-08T00:08:51.364Z,3.97
2019-02-08T00:10:53.029Z,4.60
2019-02-08T00:12:54.677Z,4.83
2019-02-08T00:14:56.340Z,3.20
2019-02-08T00:16:57.992Z,4.70
2019-02-08T00:18:59.642Z,5.80
2019-02-08T00:21:01.298Z,5.37
2019-02-08T00:23:03.144Z,5.20
2019-02-08T00:25:05.728Z,3.67
2019-02-08T00:27:07.377Z,4.17
2019-02-08T00:29:09.016Z,4.73
2019-02-08T00:31:10.703Z,3.93
2019-02-08T00:33:12.333Z,5.70
2019-02-08T00:35:13.992Z,5.17
2019-02-08T00:37:15.637Z,5.30
2019-02-08T00:39:17.280Z,4.63
2019-02-08T00:41:19.323Z,5.53
2019-02-08T00:43:21.204Z,4.83
2019-02-08T00:45:22.873Z,5.20
2019-02-08T00:47:24.507Z,6.00
2019-02-08T00:49:26.780Z,4.73
2019-02-08T00:51:28.436Z,5.23
2019-02-08T00:53:33.553Z,5.50
2019-02-08T00:55:33.644Z,4.23
2019-02-08T00:57:35.389Z,5.23
2019-02-08T00:59:37.042Z,6.30
2019-02-08T01:01:38.692Z,5.87
2019-02-08T01:03:40.346Z,5.07
2019-02-08T01:05:42.011Z,5.57
2019-02-08T01:07:43.916Z,5.70
2019-02-08T01:09:45.830Z,5.83
2019-02-08T01:11:47.487Z,6.40
2019-02-08T01:13:49.145Z,5.47
2019-02-08T01:15:50.809Z,4.83
2019-02-08T01:17:52.456Z,4.80
2019-02-08T01:19:54.113Z,5.67
2019-02-08T01:21:55.772Z,4.43
2019-02-08T01:23:57.416Z,5.20
2019-02-08T01:25:59.069Z,5.77
2019-02-08T01:28:00.725Z,5.80
2019-02-08T01:30:02.753Z,3.90
2019-02-08T01:32:04.416Z,5.33
2019-02-08T01:34:06.069Z,4.83
2019-02-08T01:36:07.730Z,5.07
2019-02-08T01:38:09.376Z,5.43
2019-02-08T01:40:16.233Z,5.50
2019-02-08T01:42:17.902Z,6.80
2019-02-08T01:44:19.552Z,3.50
2019-02-08T01:46:21.222Z,3.40
2019-02-08T01:48:22.881Z,5.20
2019-02-08T01:50:25.736Z,5.00
2019-02-08T01:52:27.405Z,5.83
2019-02-08T01:54:29.056Z,6.40
2019-02-08T01:56:31.145Z,5.13
2019-02-08T01:58:32.800Z,5.70
2019-02-08T02:00:36.562Z,5.93
2019-02-08T02:02:38.493Z,6.20
2019-02-08T02:04:40.461Z,4.90
2019-02-08T02:06:42.416Z,5.20
2019-02-08T02:08:44.079Z,4.80
2019-02-08T02:10:45.724Z,5.80
2019-02-08T02:12:47.385Z,5.50
2019-02-08T02:14:49.045Z,5.40
2019-02-08T02:16:50.985Z,5.70
2019-02-08T02:18:52.737Z,5.20
2019-02-08T02:20:54.393Z,5.83
2019-02-08T02:22:56.051Z,5.77
2019-02-08T02:24:57.701Z,6.37
2019-02-08T02:26:59.401Z,5.17
2019-02-08T02:29:01.113Z,5.53
2019-02-08T02:31:02.760Z,5.67
2019-02-08T02:33:06.060Z,6.10
2019-02-08T02:35:08.556Z,4.87
2019-02-08T02:37:10.222Z,5.27
2019-02-08T02:39:11.861Z,6.43
2019-02-08T02:41:13.511Z,5.87
2019-02-08T02:43:15.149Z,5.40
2019-02-08T02:45:19.175Z,6.00
2019-02-08T02:47:20.834Z,5.73
2019-02-08T02:49:22.493Z,5.93
2019-02-08T02:51:24.164Z,5.17
2019-02-08T02:53:25.814Z,4.90
2019-02-08T02:55:27.573Z,5.00
2019-02-08T02:57:29.229Z,5.70
2019-02-08T02:59:30.879Z,4.33
2019-02-08T03:01:32.521Z,5.90
2019-02-08T03:03:34.167Z,6.60
2019-02-08T03:05:35.812Z,3.70
2019-02-08T03:07:37.479Z,4.87
2019-02-08T03:09:39.130Z,4.30
2019-02-08T03:11:40.788Z,4.87
2019-02-08T03:13:42.432Z,4.90
2019-02-08T03:15:44.415Z,4.80
2019-02-08T03:17:46.097Z,4.23
2019-02-08T03:19:47.740Z,5.43
2019-02-08T03:21:49.628Z,4.20
2019-02-08T03:23:51.271Z,5.40
2019-02-08T03:25:52.927Z,5.27
2019-02-08T03:27:54.576Z,5.17
2019-02-08T03:29:56.228Z,4.10
2019-02-08T03:31:57.908Z,6.20
2019-02-08T03:33:59.557Z,6.40
2019-02-08T03:36:01.540Z,3.10
2019-02-08T03:38:03.212Z,4.60
2019-02-08T03:40:07.653Z,4.20
2019-02-08T03:42:09.321Z,4.80
2019-02-08T03:44:11.038Z,4.20
2019-02-08T03:46:12.688Z,4.53
2019-02-08T03:48:14.353Z,4.93
2019-02-08T03:50:18.649Z,3.30
2019-02-08T03:52:20.309Z,4.60
2019-02-08T03:54:21.969Z,5.10
2019-02-08T03:56:23.600Z,4.93
2019-02-08T03:58:25.545Z,5.20
2019-02-08T04:00:30.343Z,4.13
2019-02-08T04:02:32.021Z,4.70
2019-02-08T04:04:33.649Z,4.90
2019-02-08T04:06:35.296Z,4.80
2019-02-08T04:08:36.969Z,4.50
2019-02-08T04:10:38.618Z,4.40
2019-02-08T04:12:40.606Z,3.73
2019-02-08T04:14:42.240Z,4.77
2019-02-08T04:16:44.200Z,4.40
2019-02-08T04:18:45.862Z,4.87
2019-02-08T04:20:47.518Z,4.20
2019-02-08T04:22:49.186Z,4.33
2019-02-08T04:24:50.834Z,4.57
2019-02-08T04:26:52.480Z,4.37
2019-02-08T04:28:54.142Z,3.93
2019-02-08T04:30:55.797Z,4.27
2019-02-08T04:32:57.582Z,3.80
2019-02-08T04:34:59.551Z,4.20
2019-02-08T04:37:01.205Z,4.70
2019-02-08T04:39:06.287Z,4.90
2019-02-08T04:41:07.927Z,4.43
2019-02-08T04:43:09.596Z,4.00
2019-02-08T04:45:11.245Z,4.30
2019-02-08T04:47:12.897Z,5.60
2019-02-08T04:49:14.564Z,4.70
2019-02-08T04:51:16.216Z,5.33
2019-02-08T04:53:18.185Z,5.50
2019-02-08T04:55:19.818Z,5.87
2019-02-08T04:57:21.465Z,6.20
2019-02-08T04:59:23.124Z,6.10
2019-02-08T05:01:24.778Z,5.80
2019-02-08T05:03:26.444Z,5.90
2019-02-08T05:05:28.095Z,5.67
2019-02-08T05:07:29.758Z,5.63
2019-02-08T05:09:31.431Z,6.20
2019-02-08T05:11:33.400Z,5.57
2019-02-08T05:13:35.798Z,6.80
2019-02-08T05:15:37.480Z,5.17
2019-02-08T05:17:39.133Z,5.20
2019-02-08T05:19:40.797Z,6.70
2019-02-08T05:21:42.442Z,6.13
2019-02-08T05:23:44.112Z,6.20
2019-02-08T05:25:45.760Z,6.80
2019-02-08T05:27:47.416Z,5.67
2019-02-08T05:29:49.078Z,6.70
2019-02-08T05:31:50.719Z,7.03
2019-02-08T05:33:52.411Z,6.97
2019-02-08T05:35:54.129Z,7.03
2019-02-08T05:37:55.792Z,8.03
2019-02-08T05:39:57.450Z,6.90
2019-02-08T05:41:59.096Z,7.97
2019-02-08T05:44:00.752Z,8.60
2019-02-08T05:46:02.399Z,7.60
2019-02-08T05:48:04.207Z,6.43
2019-02-08T05:50:08.183Z,7.57
2019-02-08T05:52:09.837Z,6.00
2019-02-08T05:54:11.498Z,6.20
2019-02-08T05:56:13.147Z,6.10
2019-02-08T05:58:14.806Z,6.80
2019-02-08T06:00:19.814Z,6.30
2019-02-08T06:02:21.457Z,6.43
2019-02-08T06:04:23.112Z,7.50
2019-02-08T06:06:24.748Z,5.93
2019-02-08T06:08:26.416Z,5.57
2019-02-08T06:10:28.401Z,4.90
2019-02-08T06:12:30.048Z,4.40
2019-02-08T06:14:31.702Z,5.07
2019-02-08T06:16:33.349Z,4.70
2019-02-08T06:18:35.276Z,4.87
2019-02-08T06:20:37.501Z,4.50
2019-02-08T06:22:39.150Z,4.00
2019-02-08T06:24:41.157Z,4.30
2019-02-08T06:26:42.807Z,4.97
2019-02-08T06:28:44.465Z,3.13
2019-02-08T06:30:46.418Z,3.73
2019-02-08T06:32:48.160Z,4.67
2019-02-08T06:34:49.817Z,3.93
2019-02-08T06:36:51.473Z,4.00
2019-02-08T06:38:53.128Z,3.80
2019-02-08T06:40:54.809Z,3.50
2019-02-08T06:42:56.465Z,3.60
2019-02-08T06:44:58.121Z,3.83
2019-02-08T06:46:59.769Z,4.03
2019-02-08T06:49:01.411Z,3.80
2019-02-08T06:51:04.105Z,3.27
2019-02-08T06:53:06.025Z,3.43
2019-02-08T06:55:10.864Z,3.20
2019-02-08T06:57:40.402Z,2.97
2019-02-08T07:00:05.444Z,3.20
2019-02-08T07:02:21.411Z,3.50
2019-02-08T07:04:40.528Z,3.40
2019-02-08T07:06:54.832Z,3.47
2019-02-08T07:09:05.414Z,3.63
2019-02-08T07:11:26.753Z,3.00
2019-02-08T07:13:36.250Z,4.40
2019-02-08T07:15:50.021Z,3.50
2019-02-08T07:18:09.948Z,3.07
2019-02-08T07:20:24.931Z,2.83
2019-02-08T07:22:58.749Z,3.20
2019-02-08T07:25:10.226Z,2.63
2019-02-08T07:27:17.080Z,3.43
2019-02-08T07:29:37.345Z,3.23
2019-02-08T07:31:47.624Z,2.30
2019-02-08T07:34:07.607Z,3.17
2019-02-08T07:36:18.905Z,3.40
2019-02-08T07:38:35.379Z,3.70
2019-02-08T07:40:46.782Z,3.13
2019-02-08T07:43:14.229Z,2.80
2019-02-08T07:45:27.565Z,2.90
2019-02-08T07:47:41.280Z,3.47
2019-02-08T07:49:48.482Z,2.80
2019-02-08T07:52:08.201Z,3.47
2019-02-08T07:54:38.477Z,2.80
2019-02-08T07:56:48.220Z,2.83
2019-02-08T07:59:12.453Z,3.30
2019-02-08T08:01:39.996Z,3.13
2019-02-08T08:04:01.339Z,3.03
2019-02-08T08:06:16.427Z,3.83
2019-02-08T08:08:33.436Z,2.70
2019-02-08T08:10:44.421Z,3.00
2019-02-08T08:12:54.149Z,2.90
2019-02-08T08:15:16.496Z,2.93
2019-02-08T08:17:31.752Z,2.90
2019-02-08T08:19:53.099Z,2.50
2019-02-08T08:22:01.688Z,2.77
2019-02-08T08:24:09.572Z,3.07
2019-02-08T08:26:21.998Z,1.70
2019-02-08T08:28:33.161Z,2.73
2019-02-08T08:30:42.700Z,3.13
2019-02-08T08:32:51.943Z,2.90
2019-02-08T08:35:21.744Z,1.73
2019-02-08T08:37:46.148Z,2.30
2019-02-08T08:40:12.794Z,3.50
2019-02-08T08:42:31.862Z,2.53
2019-02-08T08:45:03.672Z,2.40
2019-02-08T08:47:16.024Z,3.10
2019-02-08T08:49:45.316Z,2.40
2019-02-08T08:51:59.673Z,2.57
2019-02-08T08:54:49.705Z,1.93
2019-02-08T08:57:17.169Z,2.50
2019-02-08T08:59:46.037Z,2.70
2019-02-08T09:02:09.661Z,3.10
2019-02-08T09:04:36.401Z,2.47
2019-02-08T09:07:16.390Z,2.13
2019-02-08T09:09:42.776Z,1.73
2019-02-08T09:12:14.554Z,3.20
2019-02-08T09:14:50.279Z,2.57
2019-02-08T09:17:28.792Z,2.57
2019-02-08T09:20:00.750Z,2.27
2019-02-08T09:22:46.040Z,3.20
2019-02-08T09:25:12.061Z,2.87
2019-02-08T09:27:28.984Z,2.63
2019-02-08T09:30:15.514Z,2.57
2019-02-08T09:32:34.227Z,2.17
2019-02-08T09:35:32.236Z,2.20
2019-02-08T09:37:58.333Z,2.30
2019-02-08T09:40:37.169Z,2.20
2019-02-08T09:43:27.049Z,2.03
2019-02-08T09:46:05.804Z,3.27
2019-02-08T09:48:32.365Z,2.33
2019-02-08T09:50:59.423Z,1.90
2019-02-08T09:53:45.021Z,2.53
2019-02-08T09:56:19.632Z,3.03
2019-02-08T09:58:48.100Z,2.60
2019-02-08T10:01:26.650Z,2.50
2019-02-08T10:04:10.794Z,2.50
2019-02-08T10:06:27.995Z,2.23
2019-02-08T10:08:55.649Z,3.00
2019-02-08T10:11:31.225Z,2.60
2019-02-08T10:14:11.085Z,2.00
2019-02-08T10:16:38.497Z,3.07
2019-02-08T10:19:33.633Z,2.90
2019-02-08T10:22:00.153Z,2.70
2019-02-08T10:24:34.620Z,2.50
2019-02-08T10:27:09.197Z,3.13
2019-02-08T10:29:47.736Z,2.17
2019-02-08T10:32:39.445Z,2.20
2019-02-08T10:35:30.909Z,2.53
2019-02-08T10:38:24.237Z,2.70
2019-02-08T10:41:00.981Z,2.47
2019-02-08T10:43:35.420Z,3.23
2019-02-08T10:46:37.548Z,3.97
2019-02-08T10:49:18.133Z,3.50
2019-02-08T10:51:57.179Z,2.53
2019-02-08T10:54:45.784Z,2.33
2019-02-08T10:57:34.684Z,2.30
2019-02-08T11:00:13.349Z,2.50
2019-02-08T11:02:54.921Z,2.57
2019-02-08T11:05:34.688Z,3.53
2019-02-08T11:08:11.210Z,2.30
2019-02-08T11:10:55.001Z,1.80
2019-02-08T11:13:16.050Z,2.80
2019-02-08T11:15:43.523Z,2.73
2019-02-08T11:18:15.265Z,2.10
2019-02-08T11:20:16.924Z,3.20
2019-02-08T11:22:18.573Z,1.90
2019-02-08T11:24:22.198Z,2.40
2019-02-08T11:26:24.582Z,2.37
2019-02-08T11:28:26.425Z,2.37
2019-02-08T11:30:28.069Z,2.67
2019-02-08T11:32:42.857Z,2.53
2019-02-08T11:34:33.290Z,2.33
2019-02-08T11:36:34.957Z,2.70
2019-02-08T11:38:36.595Z,3.43
2019-02-08T11:40:38.241Z,2.30
2019-02-08T11:42:39.879Z,2.70
2019-02-08T11:44:41.541Z,2.87
2019-02-08T11:46:43.313Z,3.00
2019-02-08T11:48:45.356Z,2.80
2019-02-08T11:50:47.041Z,2.77
2019-02-08T11:52:48.725Z,3.37
2019-02-08T11:54:50.384Z,2.50
2019-02-08T11:56:52.028Z,3.17
2019-02-08T11:58:53.808Z,2.40
2019-02-08T12:00:57.188Z,2.70
2019-02-08T12:02:58.836Z,2.87
2019-02-08T12:05:00.498Z,3.20
2019-02-08T12:07:02.160Z,2.60
2019-02-08T12:09:08.144Z,3.03
2019-02-08T12:11:09.822Z,2.90
2019-02-08T12:13:11.456Z,2.20
2019-02-08T12:15:13.609Z,2.50
2019-02-08T12:17:15.248Z,2.30
2019-02-08T12:19:16.880Z,2.43
2019-02-08T12:21:18.537Z,2.37
2019-02-08T12:23:20.177Z,2.97
2019-02-08T12:25:21.828Z,2.60
2019-02-08T12:27:23.484Z,2.70
2019-02-08T12:29:25.129Z,2.77
2019-02-08T12:31:26.786Z,2.80
2019-02-08T12:33:28.441Z,2.77
2019-02-08T12:35:30.079Z,2.77
2019-02-08T12:37:31.728Z,3.20
2019-02-08T12:39:33.388Z,2.83
2019-02-08T12:41:35.019Z,2.83
2019-02-08T12:43:36.664Z,2.80
2019-02-08T12:45:38.318Z,2.50
2019-02-08T12:47:39.970Z,3.37
2019-02-08T12:49:41.616Z,3.00
2019-02-08T12:51:43.269Z,3.90
2019-02-08T12:53:44.925Z,3.67
2019-02-08T12:55:46.580Z,2.63
2019-02-08T12:57:48.230Z,2.43
2019-02-08T12:59:49.876Z,3.60
2019-02-08T13:01:51.544Z,3.30
2019-02-08T13:03:53.188Z,2.70
2019-02-08T13:05:54.852Z,3.20
2019-02-08T13:07:56.508Z,3.90
2019-02-08T13:09:58.414Z,3.37
2019-02-08T13:12:00.070Z,3.70
2019-02-08T13:14:01.709Z,3.33
2019-02-08T13:16:03.385Z,2.47
2019-02-08T13:18:05.036Z,2.70
2019-02-08T13:20:09.322Z,2.60
2019-02-08T13:22:10.972Z,3.47
2019-02-08T13:24:12.617Z,2.80
2019-02-08T13:26:14.276Z,3.17
2019-02-08T13:28:15.937Z,3.80
2019-02-08T13:30:19.944Z,4.10
2019-02-08T13:32:21.592Z,3.20
2019-02-08T13:34:23.231Z,3.13
2019-02-08T13:36:25.598Z,2.90
2019-02-08T13:38:27.248Z,2.70
2019-02-08T13:40:28.921Z,3.03
2019-02-08T13:42:30.572Z,2.77
2019-02-08T13:44:32.212Z,3.53
2019-02-08T13:46:33.869Z,2.47
2019-02-08T13:48:35.504Z,2.53
2019-02-08T13:50:37.157Z,3.30
2019-02-08T13:52:38.821Z,3.10
2019-02-08T13:54:40.494Z,3.33
2019-02-08T13:56:42.149Z,2.50
2019-02-08T13:58:43.793Z,2.90
2019-02-08T14:00:45.454Z,2.87
2019-02-08T14:02:47.099Z,3.23
2019-02-08T14:04:49.021Z,2.97
2019-02-08T14:06:50.690Z,4.07
2019-02-08T14:08:52.351Z,2.93
2019-02-08T14:10:54.032Z,3.57
2019-02-08T14:12:55.693Z,3.37
2019-02-08T14:14:57.332Z,3.67
2019-02-08T14:16:58.993Z,3.60
2019-02-08T14:19:00.685Z,2.77
2019-02-08T14:21:02.636Z,3.47
2019-02-08T14:23:04.297Z,2.37
2019-02-08T14:25:07.293Z,2.60
2019-02-08T14:27:08.964Z,3.20
2019-02-08T14:29:10.608Z,3.90
2019-02-08T14:31:12.260Z,3.20
2019-02-08T14:33:13.941Z,4.27
2019-02-08T14:35:15.915Z,4.10
2019-02-08T14:37:17.669Z,3.90
2019-02-08T14:39:19.311Z,3.90
2019-02-08T14:41:21.072Z,3.33
2019-02-08T14:43:22.733Z,3.20
2019-02-08T14:45:24.377Z,3.67
2019-02-08T14:47:26.038Z,4.23
2019-02-08T14:49:27.681Z,3.90
2019-02-08T14:51:29.328Z,4.10
2019-02-08T14:53:31.013Z,2.90
2019-02-08T14:55:32.660Z,3.67
2019-02-08T14:57:34.320Z,3.70
2019-02-08T14:59:35.964Z,3.60
2019-02-08T15:01:37.609Z,2.37
2019-02-08T15:03:39.269Z,3.97
2019-02-08T15:05:40.917Z,4.30
2019-02-08T15:07:42.572Z,4.07
2019-02-08T15:09:44.238Z,3.87
2019-02-08T15:11:45.873Z,3.00
2019-02-08T15:13:47.532Z,3.93
2019-02-08T15:15:49.186Z,2.90
2019-02-08T15:17:50.841Z,3.20
2019-02-08T15:19:52.492Z,3.73
2019-02-08T15:21:54.132Z,4.70
2019-02-08T15:23:56.498Z,4.70
2019-02-08T15:25:58.756Z,3.27
2019-02-08T15:28:00.414Z,4.57
2019-02-08T15:30:02.444Z,3.93
2019-02-08T15:32:04.086Z,4.13
2019-02-08T15:34:05.748Z,3.30
2019-02-08T15:36:07.507Z,3.47
2019-02-08T15:38:09.159Z,4.10
2019-02-08T15:40:14.194Z,4.80
2019-02-08T15:42:15.854Z,4.47
2019-02-08T15:44:17.614Z,4.10
2019-02-08T15:46:19.273Z,4.00
2019-02-08T15:48:21.025Z,4.60
2019-02-08T15:50:22.791Z,4.47
2019-02-08T15:52:24.442Z,4.33
2019-02-08T15:54:26.098Z,4.73
2019-02-08T15:56:27.741Z,4.70
2019-02-08T15:58:29.401Z,4.00
2019-02-08T16:00:31.040Z,4.30
2019-02-08T16:02:32.688Z,4.23
2019-02-08T16:04:34.605Z,4.70
2019-02-08T16:06:36.259Z,2.90
2019-02-08T16:08:37.905Z,3.87
2019-02-08T16:10:39.578Z,3.70
2019-02-08T16:12:41.281Z,4.70
2019-02-08T16:14:42.979Z,3.53
2019-02-08T16:16:44.627Z,4.40
2019-02-08T16:18:46.284Z,3.47
2019-02-08T16:20:47.941Z,3.37
2019-02-08T16:22:49.768Z,3.23
2019-02-08T16:24:51.439Z,3.20
2019-02-08T16:26:53.091Z,4.20
2019-02-08T16:28:54.723Z,3.30
2019-02-08T16:30:56.383Z,3.37
2019-02-08T16:32:58.554Z,3.43
2019-02-08T16:35:00.249Z,2.77
2019-02-08T16:37:03.642Z,3.60
2019-02-08T16:39:08.577Z,3.10
2019-02-08T16:41:10.621Z,3.00
2019-02-08T16:43:12.272Z,2.90
2019-02-08T16:45:16.732Z,3.13
2019-02-08T16:47:18.381Z,2.90
2019-02-08T16:49:20.038Z,2.87
2019-02-08T16:51:21.677Z,3.57
2019-02-08T16:53:23.323Z,3.10
2019-02-08T16:55:24.993Z,3.43
2019-02-08T16:57:26.631Z,3.07
2019-02-08T16:59:28.353Z,4.27
2019-02-08T17:01:29.984Z,2.60
2019-02-08T17:03:31.633Z,2.97
2019-02-08T17:05:33.898Z,3.57
2019-02-08T17:10:28.060Z,2.67
2019-02-08T17:12:29.716Z,3.30
2019-02-08T17:14:33.133Z,4.10
2019-02-08T17:16:34.920Z,3.17
2019-02-08T17:18:36.905Z,3.30
2019-02-08T17:20:40.522Z,4.40
2019-02-08T17:22:42.177Z,3.17
2019-02-08T17:24:43.829Z,2.70
2019-02-08T17:26:45.529Z,3.30
2019-02-08T17:28:47.170Z,3.13
2019-02-08T17:30:48.825Z,3.50
2019-02-08T17:32:50.485Z,3.30
2019-02-08T17:34:52.141Z,3.67
2019-02-08T17:36:53.801Z,4.27
2019-02-08T17:38:55.460Z,4.33
2019-02-08T17:40:57.127Z,2.70
2019-02-08T17:42:58.768Z,2.80
2019-02-08T17:45:00.988Z,3.00
2019-02-08T17:47:02.784Z,2.10
2019-02-08T17:49:04.448Z,2.90
2019-02-08T17:51:06.116Z,2.60
2019-02-08T17:53:07.754Z,3.03
2019-02-08T17:55:18.401Z,2.77
2019-02-08T17:57:20.305Z,3.63
2019-02-08T17:59:22.184Z,2.93
2019-02-08T18:01:23.852Z,3.50
2019-02-08T18:03:25.504Z,3.30
2019-02-08T18:05:27.176Z,2.93
2019-02-08T18:07:28.832Z,3.10
2019-02-08T18:09:30.509Z,2.63
2019-02-08T18:11:32.248Z,3.03
2019-02-08T18:13:33.900Z,3.70
2019-02-08T18:15:35.560Z,3.10
2019-02-08T18:17:37.209Z,3.00
2019-02-08T18:19:38.856Z,3.10
2019-02-08T18:21:40.512Z,2.63
2019-02-08T18:23:42.159Z,3.33
2019-02-08T18:25:44.124Z,3.23
2019-02-08T18:27:45.998Z,3.10
2019-02-08T18:29:48.013Z,2.67
2019-02-08T18:31:49.706Z,2.80
2019-02-08T18:33:51.437Z,2.90
2019-02-08T18:35:53.092Z,3.00
2019-02-08T18:37:54.801Z,3.00
2019-02-08T18:39:56.449Z,2.63
2019-02-08T18:41:58.113Z,3.23
2019-02-08T18:44:00.072Z,3.20
2019-02-08T18:46:02.105Z,3.17
2019-02-08T18:48:03.800Z,3.10
2019-02-08T18:50:10.795Z,3.40
2019-02-08T18:52:12.456Z,3.60
2019-02-08T18:54:14.113Z,3.27
2019-02-08T18:56:15.801Z,3.60
2019-02-08T18:58:19.103Z,2.80
2019-02-08T19:00:41.782Z,3.17
2019-02-08T19:02:44.550Z,4.10
2019-02-08T19:04:46.210Z,3.90
2019-02-08T19:06:47.872Z,3.47
2019-02-08T19:08:49.533Z,3.90
2019-02-08T19:10:51.194Z,3.43
2019-02-08T19:12:52.857Z,2.93
2019-02-08T19:14:54.523Z,2.97
2019-02-08T19:16:56.170Z,2.67
2019-02-08T19:18:57.816Z,3.70
2019-02-08T19:20:59.469Z,2.80
2019-02-08T19:23:01.128Z,2.40
2019-02-08T19:25:05.194Z,4.10
2019-02-08T19:27:06.840Z,3.60
2019-02-08T19:29:08.485Z,4.30
2019-02-08T19:31:10.136Z,4.00
2019-02-08T19:33:11.792Z,2.43
2019-02-08T19:35:13.723Z,2.77
2019-02-08T19:37:15.365Z,2.53
2019-02-08T19:39:17.012Z,2.67
2019-02-08T19:41:18.665Z,2.67
2019-02-08T19:43:20.354Z,3.20
2019-02-08T19:45:22.881Z,3.20
2019-02-08T19:47:24.553Z,2.73
2019-02-08T19:49:26.188Z,3.30
2019-02-08T19:51:27.836Z,2.40
2019-02-08T19:53:29.505Z,2.50
2019-02-08T19:55:31.160Z,2.13
2019-02-08T19:57:32.817Z,2.90
2019-02-08T19:59:34.468Z,3.37
2019-02-08T20:01:36.392Z,2.53
2019-02-08T20:03:38.057Z,2.50
2019-02-08T20:05:39.700Z,2.60
2019-02-08T20:07:41.376Z,2.40
2019-02-08T20:09:43.348Z,2.93
2019-02-08T20:11:45.004Z,2.77
2019-02-08T20:13:46.664Z,3.63
2019-02-08T20:15:48.308Z,3.17
2019-02-08T20:17:49.970Z,2.93
2019-02-08T20:19:51.625Z,2.00
2019-02-08T20:21:53.264Z,2.70
2019-02-08T20:23:55.224Z,2.77
2019-02-08T20:25:56.877Z,3.17
2019-02-08T20:27:58.636Z,2.80
2019-02-08T20:30:00.610Z,3.03
2019-02-08T20:32:02.248Z,2.67
2019-02-08T20:34:03.912Z,1.97
2019-02-08T20:36:05.572Z,2.93
2019-02-08T20:38:07.857Z,2.40
2019-02-08T20:40:12.021Z,2.90
2019-02-08T20:42:13.678Z,2.70
2019-02-08T20:44:15.346Z,2.10
2019-02-08T20:46:17.254Z,2.47
2019-02-08T20:48:20.811Z,3.07
2019-02-08T20:50:23.069Z,2.93
2019-02-08T20:52:25.005Z,3.70
2019-02-08T20:54:26.961Z,3.00
2019-02-08T20:56:28.626Z,2.97
2019-02-08T20:58:30.595Z,3.33
2019-02-08T21:00:36.917Z,3.17
2019-02-08T21:02:38.824Z,3.00
2019-02-08T21:04:40.503Z,2.90
2019-02-08T21:06:43.118Z,3.00
2019-02-08T21:08:45.183Z,2.87
2019-02-08T21:10:47.160Z,2.67
2019-02-08T21:12:48.812Z,3.40
2019-02-08T21:14:50.748Z,2.27
2019-02-08T21:16:52.412Z,2.90
2019-02-08T21:18:54.101Z,2.20
2019-02-08T21:20:56.069Z,2.97
2019-02-08T21:22:57.768Z,2.70
2019-02-08T21:24:59.436Z,3.07
2019-02-08T21:27:01.088Z,3.03
2019-02-08T21:29:02.747Z,2.90
2019-02-08T21:31:04.399Z,2.13
2019-02-08T21:33:07.476Z,2.70
2019-02-08T21:35:09.419Z,2.40
2019-02-08T21:37:11.156Z,2.97
2019-02-08T21:39:12.809Z,3.00
2019-02-08T21:41:14.468Z,3.00
2019-02-08T21:43:16.421Z,2.87
2019-02-08T21:45:20.645Z,2.90
2019-02-08T21:47:22.433Z,3.10
2019-02-08T21:49:24.097Z,3.10
2019-02-08T21:51:26.006Z,2.77
2019-02-08T21:53:27.664Z,2.73
2019-02-08T21:55:29.623Z,3.00
2019-02-08T21:57:31.372Z,2.60
2019-02-08T21:59:33.334Z,3.00
2019-02-08T22:01:35.109Z,2.70
2019-02-08T22:03:37.090Z,3.27
2019-02-08T22:05:50.504Z,2.70
2019-02-08T22:07:52.324Z,2.70
2019-02-08T22:09:53.993Z,2.97
2019-02-08T22:11:55.650Z,2.53
2019-02-08T22:13:57.301Z,2.63
2019-02-08T22:15:58.960Z,2.47
2019-02-08T22:18:00.944Z,3.10
2019-02-08T22:20:04.644Z,2.60
2019-02-08T22:22:06.313Z,2.73
2019-02-08T22:24:08.261Z,2.83
2019-02-08T22:26:09.966Z,3.80
2019-02-08T22:28:11.917Z,3.30
2019-02-08T22:30:18.520Z,2.20
2019-02-08T22:32:20.176Z,2.53
2019-02-08T22:34:21.920Z,2.77
2019-02-08T22:36:23.682Z,3.10
2019-02-08T22:38:25.333Z,3.00
2019-02-08T22:40:27.035Z,3.10
2019-02-08T22:42:28.756Z,2.33
2019-02-08T22:44:30.464Z,3.17
2019-02-08T22:46:32.120Z,3.10
2019-02-08T22:48:33.773Z,3.07
2019-02-08T22:50:36.234Z,2.90
2019-02-08T22:52:37.889Z,3.10
2019-02-08T22:54:39.545Z,2.37
2019-02-08T22:56:41.212Z,2.43
2019-02-08T22:58:42.870Z,3.10
2019-02-08T23:01:12.241Z,2.80
2019-02-08T23:03:14.305Z,2.63
2019-02-08T23:05:17.677Z,2.40
2019-02-08T23:07:19.331Z,3.60
2019-02-08T23:09:22.153Z,3.47
2019-02-08T23:11:23.816Z,3.10
2019-02-08T23:13:25.992Z,3.03
2019-02-08T23:15:27.645Z,2.50
2019-02-08T23:17:29.300Z,3.70
2019-02-08T23:19:30.950Z,2.90
2019-02-08T23:21:32.612Z,2.53
2019-02-08T23:23:34.269Z,2.57
2019-02-08T23:25:36.273Z,2.50
2019-02-08T23:27:37.940Z,2.60
2019-02-08T23:29:39.588Z,2.97
2019-02-08T23:31:41.253Z,2.80
2019-02-08T23:33:43.173Z,2.47
2019-02-08T23:35:44.829Z,3.60
2019-02-08T23:37:46.492Z,1.90
2019-02-08T23:39:48.148Z,2.27
2019-02-08T23:41:49.808Z,2.20
2019-02-08T23:43:51.797Z,2.80
2019-02-08T23:45:53.545Z,2.17
2019-02-08T23:47:55.217Z,2.93
2019-02-08T23:49:56.865Z,3.67
2019-02-08T23:51:58.528Z,2.77
2019-02-08T23:54:00.365Z,3.10
2019-02-08T23:56:02.020Z,2.87
2019-02-08T23:58:04.557Z,2.70
